sensor_id;sensor_type;location;lat;lon;timestamp;P1;durP1;ratioP1;P2;durP2;ratioP2
84652;SDS011;74883;48.882;2.092;2024-03-08T00:00:17;33.33;;;14.40;;
84652;SDS011;74883;48.882;2.092;2024-03-08T00:02:46;27.38;;;13.88;;
84652;SDS011;74883;48.882;2.092;2024-03-08T00:05:12;29.13;;;14.43;;
84652;SDS011;74883;48.882;2.092;2024-03-08T00:07:39;29.40;;;15.00;;
84652;SDS011;74883;48.882;2.092;2024-03-08T00:10:05;27.20;;;13.68;;
84652;SDS011;74883;48.882;2.092;2024-03-08T00:14:57;31.67;;;14.20;;
84652;SDS011;74883;48.882;2.092;2024-03-08T00:17:23;27.90;;;14.32;;
84652;SDS011;74883;48.882;2.092;2024-03-08T00:19:49;26.83;;;14.00;;
84652;SDS011;74883;48.882;2.092;2024-03-08T00:22:15;27.55;;;14.63;;
84652;SDS011;74883;48.882;2.092;2024-03-08T00:24:41;29.75;;;13.80;;
84652;SDS011;74883;48.882;2.092;2024-03-08T00:27:07;29.67;;;14.07;;
84652;SDS011;74883;48.882;2.092;2024-03-08T00:29:33;30.52;;;15.27;;
84652;SDS011;74883;48.882;2.092;2024-03-08T00:31:59;30.27;;;14.85;;
84652;SDS011;74883;48.882;2.092;2024-03-08T00:34:24;28.88;;;14.27;;
84652;SDS011;74883;48.882;2.092;2024-03-08T00:36:50;30.27;;;14.43;;
84652;SDS011;74883;48.882;2.092;2024-03-08T00:39:17;33.92;;;15.65;;
84652;SDS011;74883;48.882;2.092;2024-03-08T00:41:44;28.63;;;14.07;;
84652;SDS011;74883;48.882;2.092;2024-03-08T00:44:10;30.17;;;14.05;;
84652;SDS011;74883;48.882;2.092;2024-03-08T00:46:35;24.58;;;13.10;;
84652;SDS011;74883;48.882;2.092;2024-03-08T00:49:01;27.43;;;13.53;;
84652;SDS011;74883;48.882;2.092;2024-03-08T00:51:26;30.77;;;14.20;;
84652;SDS011;74883;48.882;2.092;2024-03-08T00:53:51;25.90;;;13.77;;
84652;SDS011;74883;48.882;2.092;2024-03-08T00:56:17;26.70;;;14.00;;
84652;SDS011;74883;48.882;2.092;2024-03-08T00:58:42;32.67;;;15.03;;
84652;SDS011;74883;48.882;2.092;2024-03-08T01:01:07;26.08;;;12.90;;
84652;SDS011;74883;48.882;2.092;2024-03-08T01:03:34;26.45;;;13.90;;
84652;SDS011;74883;48.882;2.092;2024-03-08T01:06:00;33.17;;;15.02;;
84652;SDS011;74883;48.882;2.092;2024-03-08T01:08:26;29.95;;;14.50;;
84652;SDS011;74883;48.882;2.092;2024-03-08T01:10:52;28.13;;;13.93;;
84652;SDS011;74883;48.882;2.092;2024-03-08T01:13:18;26.88;;;13.35;;
84652;SDS011;74883;48.882;2.092;2024-03-08T01:15:44;27.80;;;13.38;;
84652;SDS011;74883;48.882;2.092;2024-03-08T01:18:10;27.90;;;13.30;;
84652;SDS011;74883;48.882;2.092;2024-03-08T01:20:35;30.67;;;14.88;;
84652;SDS011;74883;48.882;2.092;2024-03-08T01:23:01;28.95;;;14.27;;
84652;SDS011;74883;48.882;2.092;2024-03-08T01:25:26;27.00;;;13.80;;
84652;SDS011;74883;48.882;2.092;2024-03-08T01:27:52;29.67;;;15.07;;
84652;SDS011;74883;48.882;2.092;2024-03-08T01:30:18;29.30;;;14.15;;
84652;SDS011;74883;48.882;2.092;2024-03-08T01:32:44;30.80;;;15.55;;
84652;SDS011;74883;48.882;2.092;2024-03-08T01:35:09;27.27;;;13.30;;
84652;SDS011;74883;48.882;2.092;2024-03-08T01:37:35;31.13;;;14.93;;
84652;SDS011;74883;48.882;2.092;2024-03-08T01:40:00;31.33;;;15.55;;
84652;SDS011;74883;48.882;2.092;2024-03-08T01:42:26;28.48;;;14.18;;
84652;SDS011;74883;48.882;2.092;2024-03-08T01:44:51;27.05;;;14.27;;
84652;SDS011;74883;48.882;2.092;2024-03-08T01:47:17;31.90;;;15.13;;
84652;SDS011;74883;48.882;2.092;2024-03-08T01:49:43;31.63;;;15.48;;
84652;SDS011;74883;48.882;2.092;2024-03-08T01:52:09;29.85;;;13.80;;
84652;SDS011;74883;48.882;2.092;2024-03-08T01:54:36;33.75;;;16.42;;
84652;SDS011;74883;48.882;2.092;2024-03-08T01:57:02;36.55;;;16.05;;
84652;SDS011;74883;48.882;2.092;2024-03-08T01:59:27;32.03;;;15.07;;
84652;SDS011;74883;48.882;2.092;2024-03-08T02:01:56;29.35;;;13.77;;
84652;SDS011;74883;48.882;2.092;2024-03-08T02:04:26;31.48;;;15.77;;
84652;SDS011;74883;48.882;2.092;2024-03-08T02:06:52;36.67;;;15.90;;
84652;SDS011;74883;48.882;2.092;2024-03-08T02:09:17;29.63;;;15.70;;
84652;SDS011;74883;48.882;2.092;2024-03-08T02:11:42;30.07;;;15.47;;
84652;SDS011;74883;48.882;2.092;2024-03-08T02:14:08;33.83;;;15.95;;
84652;SDS011;74883;48.882;2.092;2024-03-08T02:16:34;29.98;;;15.45;;
84652;SDS011;74883;48.882;2.092;2024-03-08T02:18:59;33.60;;;16.23;;
84652;SDS011;74883;48.882;2.092;2024-03-08T02:21:25;31.98;;;17.10;;
84652;SDS011;74883;48.882;2.092;2024-03-08T02:23:51;33.35;;;15.52;;
84652;SDS011;74883;48.882;2.092;2024-03-08T02:26:17;33.17;;;15.32;;
84652;SDS011;74883;48.882;2.092;2024-03-08T02:28:43;33.17;;;16.77;;
84652;SDS011;74883;48.882;2.092;2024-03-08T02:31:10;35.60;;;15.40;;
84652;SDS011;74883;48.882;2.092;2024-03-08T02:33:35;31.23;;;15.68;;
84652;SDS011;74883;48.882;2.092;2024-03-08T02:36:01;38.55;;;17.08;;
84652;SDS011;74883;48.882;2.092;2024-03-08T02:38:26;36.67;;;16.88;;
84652;SDS011;74883;48.882;2.092;2024-03-08T02:40:52;31.00;;;14.77;;
84652;SDS011;74883;48.882;2.092;2024-03-08T02:43:18;33.78;;;16.30;;
84652;SDS011;74883;48.882;2.092;2024-03-08T02:45:45;38.42;;;17.08;;
84652;SDS011;74883;48.882;2.092;2024-03-08T02:48:11;37.20;;;18.15;;
84652;SDS011;74883;48.882;2.092;2024-03-08T02:50:37;33.00;;;15.73;;
84652;SDS011;74883;48.882;2.092;2024-03-08T02:53:04;36.22;;;16.17;;
84652;SDS011;74883;48.882;2.092;2024-03-08T02:55:30;31.52;;;15.65;;
84652;SDS011;74883;48.882;2.092;2024-03-08T02:57:56;35.53;;;16.98;;
84652;SDS011;74883;48.882;2.092;2024-03-08T03:00:22;32.35;;;15.90;;
84652;SDS011;74883;48.882;2.092;2024-03-08T03:02:48;32.78;;;15.93;;
84652;SDS011;74883;48.882;2.092;2024-03-08T03:05:18;36.92;;;18.42;;
84652;SDS011;74883;48.882;2.092;2024-03-08T03:07:46;37.00;;;18.27;;
84652;SDS011;74883;48.882;2.092;2024-03-08T03:10:13;35.08;;;16.95;;
84652;SDS011;74883;48.882;2.092;2024-03-08T03:12:41;35.75;;;18.05;;
84652;SDS011;74883;48.882;2.092;2024-03-08T03:15:07;44.45;;;19.08;;
84652;SDS011;74883;48.882;2.092;2024-03-08T03:17:33;39.70;;;17.58;;
84652;SDS011;74883;48.882;2.092;2024-03-08T03:19:58;38.47;;;18.13;;
84652;SDS011;74883;48.882;2.092;2024-03-08T03:22:24;36.25;;;15.88;;
84652;SDS011;74883;48.882;2.092;2024-03-08T03:24:50;37.13;;;16.58;;
84652;SDS011;74883;48.882;2.092;2024-03-08T03:27:16;39.42;;;16.80;;
84652;SDS011;74883;48.882;2.092;2024-03-08T03:29:43;40.53;;;16.70;;
84652;SDS011;74883;48.882;2.092;2024-03-08T03:32:11;34.00;;;16.70;;
84652;SDS011;74883;48.882;2.092;2024-03-08T03:34:37;37.63;;;17.17;;
84652;SDS011;74883;48.882;2.092;2024-03-08T03:37:04;39.28;;;18.40;;
84652;SDS011;74883;48.882;2.092;2024-03-08T03:39:30;40.85;;;17.30;;
84652;SDS011;74883;48.882;2.092;2024-03-08T03:41:59;42.13;;;17.40;;
84652;SDS011;74883;48.882;2.092;2024-03-08T03:44:27;38.72;;;16.52;;
84652;SDS011;74883;48.882;2.092;2024-03-08T03:46:53;42.83;;;19.00;;
84652;SDS011;74883;48.882;2.092;2024-03-08T03:49:18;43.75;;;17.50;;
84652;SDS011;74883;48.882;2.092;2024-03-08T03:51:44;44.55;;;18.77;;
84652;SDS011;74883;48.882;2.092;2024-03-08T03:54:09;37.22;;;17.02;;
84652;SDS011;74883;48.882;2.092;2024-03-08T03:56:35;43.63;;;18.80;;
84652;SDS011;74883;48.882;2.092;2024-03-08T03:59:00;35.83;;;16.67;;
84652;SDS011;74883;48.882;2.092;2024-03-08T04:01:26;40.93;;;17.57;;
84652;SDS011;74883;48.882;2.092;2024-03-08T04:03:51;38.33;;;17.65;;
84652;SDS011;74883;48.882;2.092;2024-03-08T04:06:17;41.43;;;19.33;;
84652;SDS011;74883;48.882;2.092;2024-03-08T04:08:42;34.90;;;15.93;;
84652;SDS011;74883;48.882;2.092;2024-03-08T04:11:07;38.27;;;16.60;;
84652;SDS011;74883;48.882;2.092;2024-03-08T04:13:35;38.70;;;17.83;;
84652;SDS011;74883;48.882;2.092;2024-03-08T04:16:01;36.15;;;17.27;;
84652;SDS011;74883;48.882;2.092;2024-03-08T04:18:27;33.65;;;15.40;;
84652;SDS011;74883;48.882;2.092;2024-03-08T04:20:53;36.08;;;17.23;;
84652;SDS011;74883;48.882;2.092;2024-03-08T04:23:18;37.33;;;17.02;;
84652;SDS011;74883;48.882;2.092;2024-03-08T04:25:44;42.65;;;18.30;;
84652;SDS011;74883;48.882;2.092;2024-03-08T04:28:10;33.10;;;15.80;;
84652;SDS011;74883;48.882;2.092;2024-03-08T04:30:38;37.33;;;17.05;;
84652;SDS011;74883;48.882;2.092;2024-03-08T04:33:07;38.92;;;17.15;;
84652;SDS011;74883;48.882;2.092;2024-03-08T04:35:33;43.92;;;18.50;;
84652;SDS011;74883;48.882;2.092;2024-03-08T04:37:59;40.53;;;17.73;;
84652;SDS011;74883;48.882;2.092;2024-03-08T04:40:24;44.45;;;18.83;;
84652;SDS011;74883;48.882;2.092;2024-03-08T04:42:50;45.80;;;19.27;;
84652;SDS011;74883;48.882;2.092;2024-03-08T04:45:17;38.22;;;17.25;;
84652;SDS011;74883;48.882;2.092;2024-03-08T04:47:42;42.55;;;18.45;;
84652;SDS011;74883;48.882;2.092;2024-03-08T04:50:08;44.67;;;18.10;;
84652;SDS011;74883;48.882;2.092;2024-03-08T04:52:34;38.67;;;16.48;;
84652;SDS011;74883;48.882;2.092;2024-03-08T04:55:00;38.83;;;16.92;;
84652;SDS011;74883;48.882;2.092;2024-03-08T04:57:27;39.53;;;17.95;;
84652;SDS011;74883;48.882;2.092;2024-03-08T04:59:52;42.30;;;16.77;;
84652;SDS011;74883;48.882;2.092;2024-03-08T05:02:18;38.07;;;16.63;;
84652;SDS011;74883;48.882;2.092;2024-03-08T05:04:43;44.70;;;18.88;;
84652;SDS011;74883;48.882;2.092;2024-03-08T05:07:08;44.27;;;19.60;;
84652;SDS011;74883;48.882;2.092;2024-03-08T05:09:34;47.25;;;18.48;;
84652;SDS011;74883;48.882;2.092;2024-03-08T05:12:01;43.05;;;16.90;;
84652;SDS011;74883;48.882;2.092;2024-03-08T05:14:26;53.20;;;19.05;;
84652;SDS011;74883;48.882;2.092;2024-03-08T05:16:52;51.85;;;20.65;;
84652;SDS011;74883;48.882;2.092;2024-03-08T05:19:18;47.13;;;18.80;;
84652;SDS011;74883;48.882;2.092;2024-03-08T05:21:48;46.83;;;20.83;;
84652;SDS011;74883;48.882;2.092;2024-03-08T05:24:15;46.13;;;19.20;;
84652;SDS011;74883;48.882;2.092;2024-03-08T05:26:41;52.15;;;19.95;;
84652;SDS011;74883;48.882;2.092;2024-03-08T05:29:07;47.78;;;19.67;;
84652;SDS011;74883;48.882;2.092;2024-03-08T05:31:49;47.35;;;18.73;;
84652;SDS011;74883;48.882;2.092;2024-03-08T05:34:17;55.58;;;20.30;;
84652;SDS011;74883;48.882;2.092;2024-03-08T05:36:44;48.67;;;18.50;;
84652;SDS011;74883;48.882;2.092;2024-03-08T05:39:11;49.10;;;18.42;;
84652;SDS011;74883;48.882;2.092;2024-03-08T05:41:40;49.17;;;18.52;;
84652;SDS011;74883;48.882;2.092;2024-03-08T05:44:06;46.65;;;18.85;;
84652;SDS011;74883;48.882;2.092;2024-03-08T05:46:32;58.90;;;19.73;;
84652;SDS011;74883;48.882;2.092;2024-03-08T05:48:58;52.47;;;19.70;;
84652;SDS011;74883;48.882;2.092;2024-03-08T05:51:30;47.40;;;18.52;;
84652;SDS011;74883;48.882;2.092;2024-03-08T05:53:56;56.97;;;19.70;;
84652;SDS011;74883;48.882;2.092;2024-03-08T05:56:21;46.85;;;19.27;;
84652;SDS011;74883;48.882;2.092;2024-03-08T05:58:50;47.03;;;19.15;;
84652;SDS011;74883;48.882;2.092;2024-03-08T06:01:15;48.60;;;18.10;;
84652;SDS011;74883;48.882;2.092;2024-03-08T06:03:41;40.25;;;17.38;;
84652;SDS011;74883;48.882;2.092;2024-03-08T06:06:12;45.78;;;17.65;;
84652;SDS011;74883;48.882;2.092;2024-03-08T06:08:37;47.33;;;17.75;;
84652;SDS011;74883;48.882;2.092;2024-03-08T06:11:03;46.10;;;17.50;;
84652;SDS011;74883;48.882;2.092;2024-03-08T06:13:29;44.58;;;17.60;;
84652;SDS011;74883;48.882;2.092;2024-03-08T06:15:56;43.13;;;17.92;;
84652;SDS011;74883;48.882;2.092;2024-03-08T06:18:21;48.03;;;17.67;;
84652;SDS011;74883;48.882;2.092;2024-03-08T06:20:47;50.50;;;19.55;;
84652;SDS011;74883;48.882;2.092;2024-03-08T06:23:12;44.92;;;18.35;;
84652;SDS011;74883;48.882;2.092;2024-03-08T06:25:42;54.90;;;17.27;;
84652;SDS011;74883;48.882;2.092;2024-03-08T06:28:08;51.75;;;19.77;;
84652;SDS011;74883;48.882;2.092;2024-03-08T06:30:34;50.83;;;19.37;;
84652;SDS011;74883;48.882;2.092;2024-03-08T06:32:59;49.97;;;18.40;;
84652;SDS011;74883;48.882;2.092;2024-03-08T06:35:25;52.65;;;19.77;;
84652;SDS011;74883;48.882;2.092;2024-03-08T06:37:50;48.22;;;18.38;;
84652;SDS011;74883;48.882;2.092;2024-03-08T06:40:16;48.83;;;18.73;;
84652;SDS011;74883;48.882;2.092;2024-03-08T06:42:41;43.92;;;18.20;;
84652;SDS011;74883;48.882;2.092;2024-03-08T06:45:07;43.90;;;18.25;;
84652;SDS011;74883;48.882;2.092;2024-03-08T06:47:35;53.80;;;19.60;;
84652;SDS011;74883;48.882;2.092;2024-03-08T06:50:01;46.55;;;19.40;;
84652;SDS011;74883;48.882;2.092;2024-03-08T06:52:27;48.72;;;18.20;;
84652;SDS011;74883;48.882;2.092;2024-03-08T06:54:52;52.20;;;19.87;;
84652;SDS011;74883;48.882;2.092;2024-03-08T06:57:18;45.75;;;20.77;;
84652;SDS011;74883;48.882;2.092;2024-03-08T06:59:46;50.08;;;18.60;;
84652;SDS011;74883;48.882;2.092;2024-03-08T07:02:12;55.67;;;20.92;;
84652;SDS011;74883;48.882;2.092;2024-03-08T07:04:38;55.67;;;23.02;;
84652;SDS011;74883;48.882;2.092;2024-03-08T07:07:04;55.37;;;21.20;;
84652;SDS011;74883;48.882;2.092;2024-03-08T07:09:30;58.45;;;21.90;;
84652;SDS011;74883;48.882;2.092;2024-03-08T07:11:55;51.90;;;19.23;;
84652;SDS011;74883;48.882;2.092;2024-03-08T07:14:21;52.28;;;21.70;;
84652;SDS011;74883;48.882;2.092;2024-03-08T07:16:47;49.38;;;19.58;;
84652;SDS011;74883;48.882;2.092;2024-03-08T07:19:13;54.35;;;20.67;;
84652;SDS011;74883;48.882;2.092;2024-03-08T07:21:38;46.90;;;19.75;;
84652;SDS011;74883;48.882;2.092;2024-03-08T07:24:04;50.30;;;19.67;;
84652;SDS011;74883;48.882;2.092;2024-03-08T07:26:50;46.15;;;20.20;;
84652;SDS011;74883;48.882;2.092;2024-03-08T07:29:17;47.03;;;20.55;;
84652;SDS011;74883;48.882;2.092;2024-03-08T07:31:42;44.63;;;18.83;;
84652;SDS011;74883;48.882;2.092;2024-03-08T07:34:21;44.85;;;18.02;;
84652;SDS011;74883;48.882;2.092;2024-03-08T07:36:46;50.92;;;19.45;;
84652;SDS011;74883;48.882;2.092;2024-03-08T07:39:12;47.75;;;21.35;;
84652;SDS011;74883;48.882;2.092;2024-03-08T07:41:38;44.83;;;19.73;;
84652;SDS011;74883;48.882;2.092;2024-03-08T07:44:07;49.35;;;19.52;;
84652;SDS011;74883;48.882;2.092;2024-03-08T07:46:32;46.90;;;18.58;;
84652;SDS011;74883;48.882;2.092;2024-03-08T07:48:59;46.67;;;19.02;;
84652;SDS011;74883;48.882;2.092;2024-03-08T07:51:25;47.45;;;19.52;;
84652;SDS011;74883;48.882;2.092;2024-03-08T07:53:50;43.90;;;18.00;;
84652;SDS011;74883;48.882;2.092;2024-03-08T07:56:15;44.28;;;18.67;;
84652;SDS011;74883;48.882;2.092;2024-03-08T08:01:15;45.10;;;19.27;;
84652;SDS011;74883;48.882;2.092;2024-03-08T08:03:44;47.88;;;18.23;;
84652;SDS011;74883;48.882;2.092;2024-03-08T08:06:10;42.95;;;18.02;;
84652;SDS011;74883;48.882;2.092;2024-03-08T08:08:41;48.13;;;20.52;;
84652;SDS011;74883;48.882;2.092;2024-03-08T08:11:07;51.28;;;18.88;;
84652;SDS011;74883;48.882;2.092;2024-03-08T08:13:33;45.70;;;18.15;;
84652;SDS011;74883;48.882;2.092;2024-03-08T08:15:59;38.63;;;18.08;;
84652;SDS011;74883;48.882;2.092;2024-03-08T08:18:24;48.38;;;19.08;;
84652;SDS011;74883;48.882;2.092;2024-03-08T08:20:51;49.20;;;19.05;;
84652;SDS011;74883;48.882;2.092;2024-03-08T08:23:17;46.88;;;17.75;;
84652;SDS011;74883;48.882;2.092;2024-03-08T08:25:44;48.92;;;18.30;;
84652;SDS011;74883;48.882;2.092;2024-03-08T08:28:10;40.55;;;17.08;;
84652;SDS011;74883;48.882;2.092;2024-03-08T08:33:02;41.90;;;17.83;;
84652;SDS011;74883;48.882;2.092;2024-03-08T08:35:30;41.78;;;18.10;;
84652;SDS011;74883;48.882;2.092;2024-03-08T08:37:56;35.85;;;16.05;;
84652;SDS011;74883;48.882;2.092;2024-03-08T08:40:23;42.55;;;18.48;;
84652;SDS011;74883;48.882;2.092;2024-03-08T08:42:50;42.15;;;18.30;;
84652;SDS011;74883;48.882;2.092;2024-03-08T08:45:17;39.03;;;15.50;;
84652;SDS011;74883;48.882;2.092;2024-03-08T08:47:44;32.95;;;15.50;;
84652;SDS011;74883;48.882;2.092;2024-03-08T08:50:10;39.00;;;15.25;;
84652;SDS011;74883;48.882;2.092;2024-03-08T08:52:39;37.13;;;14.48;;
84652;SDS011;74883;48.882;2.092;2024-03-08T08:55:05;35.75;;;15.35;;
84652;SDS011;74883;48.882;2.092;2024-03-08T08:57:31;28.08;;;14.20;;
84652;SDS011;74883;48.882;2.092;2024-03-08T08:59:58;37.05;;;14.80;;
84652;SDS011;74883;48.882;2.092;2024-03-08T09:02:25;35.50;;;14.63;;
84652;SDS011;74883;48.882;2.092;2024-03-08T09:04:50;29.85;;;14.13;;
84652;SDS011;74883;48.882;2.092;2024-03-08T09:07:16;32.58;;;14.38;;
84652;SDS011;74883;48.882;2.092;2024-03-08T09:09:44;32.65;;;14.63;;
84652;SDS011;74883;48.882;2.092;2024-03-08T09:12:10;32.83;;;14.65;;
84652;SDS011;74883;48.882;2.092;2024-03-08T09:14:39;28.98;;;14.05;;
84652;SDS011;74883;48.882;2.092;2024-03-08T09:17:06;32.85;;;13.65;;
84652;SDS011;74883;48.882;2.092;2024-03-08T09:22:08;28.80;;;13.07;;
84652;SDS011;74883;48.882;2.092;2024-03-08T09:24:34;26.50;;;12.63;;
84652;SDS011;74883;48.882;2.092;2024-03-08T09:26:59;37.50;;;15.10;;
84652;SDS011;74883;48.882;2.092;2024-03-08T09:29:25;28.35;;;13.23;;
84652;SDS011;74883;48.882;2.092;2024-03-08T09:31:50;27.27;;;12.55;;
84652;SDS011;74883;48.882;2.092;2024-03-08T09:34:17;27.52;;;13.15;;
84652;SDS011;74883;48.882;2.092;2024-03-08T09:36:43;31.48;;;12.43;;
84652;SDS011;74883;48.882;2.092;2024-03-08T09:39:09;29.67;;;12.32;;
84652;SDS011;74883;48.882;2.092;2024-03-08T09:41:35;28.88;;;12.38;;
84652;SDS011;74883;48.882;2.092;2024-03-08T09:44:00;29.37;;;11.83;;
84652;SDS011;74883;48.882;2.092;2024-03-08T09:46:26;28.17;;;12.38;;
84652;SDS011;74883;48.882;2.092;2024-03-08T09:48:55;25.88;;;12.32;;
84652;SDS011;74883;48.882;2.092;2024-03-08T09:51:26;25.80;;;11.20;;
84652;SDS011;74883;48.882;2.092;2024-03-08T09:53:53;26.50;;;11.52;;
84652;SDS011;74883;48.882;2.092;2024-03-08T09:56:19;24.90;;;10.88;;
84652;SDS011;74883;48.882;2.092;2024-03-08T09:58:46;27.17;;;12.52;;
84652;SDS011;74883;48.882;2.092;2024-03-08T10:03:58;22.67;;;10.90;;
84652;SDS011;74883;48.882;2.092;2024-03-08T10:06:23;28.17;;;11.80;;
84652;SDS011;74883;48.882;2.092;2024-03-08T10:08:49;24.20;;;11.77;;
84652;SDS011;74883;48.882;2.092;2024-03-08T10:11:17;30.13;;;12.60;;
84652;SDS011;74883;48.882;2.092;2024-03-08T10:13:42;30.80;;;11.70;;
84652;SDS011;74883;48.882;2.092;2024-03-08T10:16:11;22.38;;;10.05;;
84652;SDS011;74883;48.882;2.092;2024-03-08T10:18:37;21.40;;;10.57;;
84652;SDS011;74883;48.882;2.092;2024-03-08T10:21:03;20.98;;;9.32;;
84652;SDS011;74883;48.882;2.092;2024-03-08T10:23:33;23.30;;;10.43;;
84652;SDS011;74883;48.882;2.092;2024-03-08T10:26:15;20.52;;;9.57;;
84652;SDS011;74883;48.882;2.092;2024-03-08T10:28:44;20.75;;;9.80;;
84652;SDS011;74883;48.882;2.092;2024-03-08T10:31:12;19.27;;;8.55;;
84652;SDS011;74883;48.882;2.092;2024-03-08T10:33:40;21.25;;;10.00;;
84652;SDS011;74883;48.882;2.092;2024-03-08T10:36:09;19.10;;;9.48;;
84652;SDS011;74883;48.882;2.092;2024-03-08T10:38:38;20.73;;;9.82;;
84652;SDS011;74883;48.882;2.092;2024-03-08T10:41:08;20.48;;;9.38;;
84652;SDS011;74883;48.882;2.092;2024-03-08T10:46:35;17.42;;;7.72;;
84652;SDS011;74883;48.882;2.092;2024-03-08T10:51:33;19.73;;;8.13;;
84652;SDS011;74883;48.882;2.092;2024-03-08T10:53:59;15.20;;;7.82;;
84652;SDS011;74883;48.882;2.092;2024-03-08T10:56:25;23.38;;;8.93;;
84652;SDS011;74883;48.882;2.092;2024-03-08T10:58:52;19.55;;;9.07;;
84652;SDS011;74883;48.882;2.092;2024-03-08T11:01:19;17.98;;;8.00;;
84652;SDS011;74883;48.882;2.092;2024-03-08T11:03:44;17.40;;;7.90;;
84652;SDS011;74883;48.882;2.092;2024-03-08T11:06:22;14.40;;;7.25;;
84652;SDS011;74883;48.882;2.092;2024-03-08T11:09:03;17.83;;;8.68;;
84652;SDS011;74883;48.882;2.092;2024-03-08T11:11:38;18.98;;;7.32;;
84652;SDS011;74883;48.882;2.092;2024-03-08T11:14:07;18.85;;;8.65;;
84652;SDS011;74883;48.882;2.092;2024-03-08T11:17:08;20.27;;;8.07;;
84652;SDS011;74883;48.882;2.092;2024-03-08T11:19:34;16.13;;;7.13;;
84652;SDS011;74883;48.882;2.092;2024-03-08T11:22:03;19.65;;;7.55;;
84652;SDS011;74883;48.882;2.092;2024-03-08T11:24:36;18.73;;;8.80;;
84652;SDS011;74883;48.882;2.092;2024-03-08T11:27:05;20.60;;;9.65;;
84652;SDS011;74883;48.882;2.092;2024-03-08T11:29:32;18.35;;;8.00;;
84652;SDS011;74883;48.882;2.092;2024-03-08T11:32:07;14.75;;;8.00;;
84652;SDS011;74883;48.882;2.092;2024-03-08T11:34:35;17.15;;;7.95;;
84652;SDS011;74883;48.882;2.092;2024-03-08T11:37:03;20.02;;;8.25;;
84652;SDS011;74883;48.882;2.092;2024-03-08T11:39:29;19.27;;;7.53;;
84652;SDS011;74883;48.882;2.092;2024-03-08T11:41:55;17.52;;;8.52;;
84652;SDS011;74883;48.882;2.092;2024-03-08T11:44:21;15.65;;;7.00;;
84652;SDS011;74883;48.882;2.092;2024-03-08T11:46:46;18.45;;;8.55;;
84652;SDS011;74883;48.882;2.092;2024-03-08T11:49:13;16.50;;;7.32;;
84652;SDS011;74883;48.882;2.092;2024-03-08T11:51:39;19.67;;;8.13;;
84652;SDS011;74883;48.882;2.092;2024-03-08T11:54:05;15.82;;;8.05;;
84652;SDS011;74883;48.882;2.092;2024-03-08T11:56:31;16.65;;;7.75;;
84652;SDS011;74883;48.882;2.092;2024-03-08T11:58:57;17.88;;;8.00;;
84652;SDS011;74883;48.882;2.092;2024-03-08T12:01:23;16.15;;;7.25;;
84652;SDS011;74883;48.882;2.092;2024-03-08T12:03:55;16.35;;;6.97;;
84652;SDS011;74883;48.882;2.092;2024-03-08T12:06:25;17.27;;;6.63;;
84652;SDS011;74883;48.882;2.092;2024-03-08T12:08:52;14.90;;;7.25;;
84652;SDS011;74883;48.882;2.092;2024-03-08T12:11:18;13.73;;;6.47;;
84652;SDS011;74883;48.882;2.092;2024-03-08T12:13:47;16.98;;;7.38;;
84652;SDS011;74883;48.882;2.092;2024-03-08T12:16:15;16.85;;;7.70;;
84652;SDS011;74883;48.882;2.092;2024-03-08T12:18:46;16.52;;;7.25;;
84652;SDS011;74883;48.882;2.092;2024-03-08T12:21:13;14.50;;;6.32;;
84652;SDS011;74883;48.882;2.092;2024-03-08T12:23:42;12.52;;;6.25;;
84652;SDS011;74883;48.882;2.092;2024-03-08T12:28:41;16.48;;;6.43;;
84652;SDS011;74883;48.882;2.092;2024-03-08T12:31:08;15.05;;;6.03;;
84652;SDS011;74883;48.882;2.092;2024-03-08T12:33:57;14.80;;;6.68;;
84652;SDS011;74883;48.882;2.092;2024-03-08T12:36:24;15.40;;;6.85;;
84652;SDS011;74883;48.882;2.092;2024-03-08T12:38:50;14.02;;;6.72;;
84652;SDS011;74883;48.882;2.092;2024-03-08T12:41:16;13.88;;;6.43;;
84652;SDS011;74883;48.882;2.092;2024-03-08T12:43:45;14.60;;;6.40;;
84652;SDS011;74883;48.882;2.092;2024-03-08T12:46:16;12.15;;;5.68;;
84652;SDS011;74883;48.882;2.092;2024-03-08T12:48:45;14.82;;;6.60;;
84652;SDS011;74883;48.882;2.092;2024-03-08T12:51:14;15.00;;;6.28;;
84652;SDS011;74883;48.882;2.092;2024-03-08T12:53:41;13.13;;;6.28;;
84652;SDS011;74883;48.882;2.092;2024-03-08T12:56:10;12.90;;;5.70;;
84652;SDS011;74883;48.882;2.092;2024-03-08T12:58:36;15.77;;;6.13;;
84652;SDS011;74883;48.882;2.092;2024-03-08T13:01:03;12.98;;;5.78;;
84652;SDS011;74883;48.882;2.092;2024-03-08T13:03:35;15.38;;;5.97;;
84652;SDS011;74883;48.882;2.092;2024-03-08T13:06:05;13.65;;;5.97;;
84652;SDS011;74883;48.882;2.092;2024-03-08T13:08:33;12.88;;;5.75;;
84652;SDS011;74883;48.882;2.092;2024-03-08T13:11:06;11.20;;;5.68;;
84652;SDS011;74883;48.882;2.092;2024-03-08T13:13:39;13.10;;;7.07;;
84652;SDS011;74883;48.882;2.092;2024-03-08T13:16:05;13.98;;;5.75;;
84652;SDS011;74883;48.882;2.092;2024-03-08T13:18:37;12.48;;;5.93;;
84652;SDS011;74883;48.882;2.092;2024-03-08T13:21:03;10.93;;;5.85;;
84652;SDS011;74883;48.882;2.092;2024-03-08T13:23:33;12.90;;;6.03;;
84652;SDS011;74883;48.882;2.092;2024-03-08T13:26:04;11.38;;;5.20;;
84652;SDS011;74883;48.882;2.092;2024-03-08T13:28:31;13.35;;;5.10;;
84652;SDS011;74883;48.882;2.092;2024-03-08T13:30:56;12.50;;;5.30;;
84652;SDS011;74883;48.882;2.092;2024-03-08T13:33:26;10.98;;;4.95;;
84652;SDS011;74883;48.882;2.092;2024-03-08T13:35:52;11.65;;;4.97;;
84652;SDS011;74883;48.882;2.092;2024-03-08T13:38:17;11.43;;;5.00;;
84652;SDS011;74883;48.882;2.092;2024-03-08T13:40:45;14.43;;;6.13;;
84652;SDS011;74883;48.882;2.092;2024-03-08T13:43:11;10.15;;;4.90;;
84652;SDS011;74883;48.882;2.092;2024-03-08T13:45:38;11.65;;;5.18;;
84652;SDS011;74883;48.882;2.092;2024-03-08T13:48:03;12.48;;;4.68;;
84652;SDS011;74883;48.882;2.092;2024-03-08T13:50:32;11.38;;;5.30;;
84652;SDS011;74883;48.882;2.092;2024-03-08T13:52:57;11.00;;;5.43;;
84652;SDS011;74883;48.882;2.092;2024-03-08T13:55:23;11.03;;;5.00;;
84652;SDS011;74883;48.882;2.092;2024-03-08T13:57:51;11.63;;;4.50;;
84652;SDS011;74883;48.882;2.092;2024-03-08T14:00:17;13.90;;;5.07;;
84652;SDS011;74883;48.882;2.092;2024-03-08T14:02:42;13.05;;;4.93;;
84652;SDS011;74883;48.882;2.092;2024-03-08T14:05:08;12.57;;;4.38;;
84652;SDS011;74883;48.882;2.092;2024-03-08T14:07:34;11.57;;;4.55;;
84652;SDS011;74883;48.882;2.092;2024-03-08T14:10:00;10.05;;;4.18;;
84652;SDS011;74883;48.882;2.092;2024-03-08T14:12:25;13.27;;;4.65;;
84652;SDS011;74883;48.882;2.092;2024-03-08T14:14:52;9.60;;;4.22;;
84652;SDS011;74883;48.882;2.092;2024-03-08T14:17:17;8.40;;;4.13;;
84652;SDS011;74883;48.882;2.092;2024-03-08T14:19:43;8.45;;;4.18;;
84652;SDS011;74883;48.882;2.092;2024-03-08T14:22:08;9.23;;;3.63;;
84652;SDS011;74883;48.882;2.092;2024-03-08T14:24:38;8.32;;;3.95;;
84652;SDS011;74883;48.882;2.092;2024-03-08T14:27:04;14.48;;;4.30;;
84652;SDS011;74883;48.882;2.092;2024-03-08T14:29:30;7.80;;;2.92;;
84652;SDS011;74883;48.882;2.092;2024-03-08T14:31:57;8.10;;;3.03;;
84652;SDS011;74883;48.882;2.092;2024-03-08T14:34:27;8.65;;;3.35;;
84652;SDS011;74883;48.882;2.092;2024-03-08T14:36:54;9.20;;;3.45;;
84652;SDS011;74883;48.882;2.092;2024-03-08T14:39:20;6.70;;;2.70;;
84652;SDS011;74883;48.882;2.092;2024-03-08T14:41:47;10.23;;;3.03;;
84652;SDS011;74883;48.882;2.092;2024-03-08T14:44:13;12.68;;;3.28;;